sensor_id;sensor_type;location;lat;lon;timestamp;pressure;altitude;pressure_sealevel;temperature;humidity
39773;BME280;25451;51.960;6.250;2024-03-22T00:02:08;101975.88;;;12.20;71.50
39773;BME280;25451;51.960;6.250;2024-03-22T00:04:36;101970.97;;;12.22;71.42
39773;BME280;25451;51.960;6.250;2024-03-22T00:07:02;101967.38;;;12.21;71.63
39773;BME280;25451;51.960;6.250;2024-03-22T00:09:28;101967.81;;;12.18;71.75
39773;BME280;25451;51.960;6.250;2024-03-22T00:11:53;101965.44;;;12.22;71.48
39773;BME280;25451;51.960;6.250;2024-03-22T00:14:19;101965.44;;;12.22;71.71
39773;BME280;25451;51.960;6.250;2024-03-22T00:16:44;101968.00;;;12.23;71.89
39773;BME280;25451;51.960;6.250;2024-03-22T00:19:09;101968.81;;;12.24;71.79
39773;BME280;25451;51.960;6.250;2024-03-22T00:21:35;101954.34;;;12.22;71.99
39773;BME280;25451;51.960;6.250;2024-03-22T00:24:00;101954.97;;;12.24;71.87
39773;BME280;25451;51.960;6.250;2024-03-22T00:26:27;101942.84;;;12.25;71.76
39773;BME280;25451;51.960;6.250;2024-03-22T00:28:52;101946.22;;;12.27;72.08
39773;BME280;25451;51.960;6.250;2024-03-22T00:31:17;101940.69;;;12.27;72.00
39773;BME280;25451;51.960;6.250;2024-03-22T00:33:43;101940.69;;;12.27;71.81
39773;BME280;25451;51.960;6.250;2024-03-22T00:36:09;101933.25;;;12.27;71.89
39773;BME280;25451;51.960;6.250;2024-03-22T00:38:34;101927.47;;;12.29;71.97
39773;BME280;25451;51.960;6.250;2024-03-22T00:40:59;101920.22;;;12.28;71.89
39773;BME280;25451;51.960;6.250;2024-03-22T00:43:24;101908.94;;;12.29;72.24
39773;BME280;25451;51.960;6.250;2024-03-22T00:45:50;101915.53;;;12.28;71.84
39773;BME280;25451;51.960;6.250;2024-03-22T00:48:15;101900.41;;;12.31;72.11
39773;BME280;25451;51.960;6.250;2024-03-22T00:50:41;101891.25;;;12.30;71.90
39773;BME280;25451;51.960;6.250;2024-03-22T00:53:06;101891.00;;;12.32;71.99
39773;BME280;25451;51.960;6.250;2024-03-22T00:55:33;101885.47;;;12.32;72.39
39773;BME280;25451;51.960;6.250;2024-03-22T00:57:58;101886.31;;;12.32;72.21
39773;BME280;25451;51.960;6.250;2024-03-22T01:00:24;101880.56;;;12.34;72.41
39773;BME280;25451;51.960;6.250;2024-03-22T01:02:50;101877.78;;;12.34;72.21
39773;BME280;25451;51.960;6.250;2024-03-22T01:05:16;101879.25;;;12.36;72.15
39773;BME280;25451;51.960;6.250;2024-03-22T01:07:41;101877.34;;;12.37;72.15
39773;BME280;25451;51.960;6.250;2024-03-22T01:10:06;101873.47;;;12.38;72.17
39773;BME280;25451;51.960;6.250;2024-03-22T01:12:32;101860.47;;;12.38;72.26
39773;BME280;25451;51.960;6.250;2024-03-22T01:14:57;101866.88;;;12.39;72.43
39773;BME280;25451;51.960;6.250;2024-03-22T01:17:23;101866.38;;;12.42;72.38
39773;BME280;25451;51.960;6.250;2024-03-22T01:19:48;101860.03;;;12.41;72.71
39773;BME280;25451;51.960;6.250;2024-03-22T01:22:14;101862.56;;;12.43;72.47
39773;BME280;25451;51.960;6.250;2024-03-22T01:24:39;101848.47;;;12.44;72.71
39773;BME280;25451;51.960;6.250;2024-03-22T01:27:04;101843.78;;;12.45;72.74
39773;BME280;25451;51.960;6.250;2024-03-22T01:29:30;101837.41;;;12.44;72.87
39773;BME280;25451;51.960;6.250;2024-03-22T01:31:57;101829.72;;;12.46;72.91
39773;BME280;25451;51.960;6.250;2024-03-22T01:34:23;101836.94;;;12.47;72.63
39773;BME280;25451;51.960;6.250;2024-03-22T01:36:48;101827.78;;;12.47;72.89
39773;BME280;25451;51.960;6.250;2024-03-22T01:39:13;101833.94;;;12.49;72.79
39773;BME280;25451;51.960;6.250;2024-03-22T01:41:40;101825.03;;;12.47;72.72
39773;BME280;25451;51.960;6.250;2024-03-22T01:44:05;101823.97;;;12.48;72.75
39773;BME280;25451;51.960;6.250;2024-03-22T01:46:30;101824.56;;;12.50;73.19
39773;BME280;25451;51.960;6.250;2024-03-22T01:48:56;101814.56;;;12.49;73.02
39773;BME280;25451;51.960;6.250;2024-03-22T01:51:21;101815.16;;;12.51;73.18
39773;BME280;25451;51.960;6.250;2024-03-22T01:53:47;101819.84;;;12.50;72.94
39773;BME280;25451;51.960;6.250;2024-03-22T01:56:12;101806.84;;;12.51;73.37
39773;BME280;25451;51.960;6.250;2024-03-22T01:58:39;101812.03;;;12.47;73.11
39773;BME280;25451;51.960;6.250;2024-03-22T02:01:05;101820.72;;;12.51;73.46
39773;BME280;25451;51.960;6.250;2024-03-22T02:03:31;101820.09;;;12.49;73.43
39773;BME280;25451;51.960;6.250;2024-03-22T02:05:56;101820.72;;;12.51;73.44
39773;BME280;25451;51.960;6.250;2024-03-22T02:08:21;101817.94;;;12.51;73.06
39773;BME280;25451;51.960;6.250;2024-03-22T02:10:46;101821.56;;;12.52;73.47
39773;BME280;25451;51.960;6.250;2024-03-22T02:13:12;101810.47;;;12.52;73.32
39773;BME280;25451;51.960;6.250;2024-03-22T02:15:37;101806.00;;;12.50;73.58
39773;BME280;25451;51.960;6.250;2024-03-22T02:18:03;101807.97;;;12.50;73.47
39773;BME280;25451;51.960;6.250;2024-03-22T02:20:28;101800.47;;;12.50;73.50
39773;BME280;25451;51.960;6.250;2024-03-22T02:22:54;101793.50;;;12.48;73.60
39773;BME280;25451;51.960;6.250;2024-03-22T02:25:19;101783.47;;;12.47;73.42
39773;BME280;25451;51.960;6.250;2024-03-22T02:27:45;101770.56;;;12.41;73.31
39773;BME280;25451;51.960;6.250;2024-03-22T02:30:10;101773.88;;;12.49;73.35
39773;BME280;25451;51.960;6.250;2024-03-22T02:32:35;101769.19;;;12.50;73.38
39773;BME280;25451;51.960;6.250;2024-03-22T02:35:02;101770.00;;;12.50;73.72
39773;BME280;25451;51.960;6.250;2024-03-22T02:37:27;101768.09;;;12.51;73.24
39773;BME280;25451;51.960;6.250;2024-03-22T02:39:53;101770.84;;;12.51;73.42
39773;BME280;25451;51.960;6.250;2024-03-22T02:42:18;101758.94;;;12.50;73.74
39773;BME280;25451;51.960;6.250;2024-03-22T02:44:44;101758.47;;;12.54;73.45
39773;BME280;25451;51.960;6.250;2024-03-22T02:47:09;101753.19;;;12.52;73.44
39773;BME280;25451;51.960;6.250;2024-03-22T02:49:35;101756.56;;;12.54;73.52
39773;BME280;25451;51.960;6.250;2024-03-22T02:52:00;101749.94;;;12.55;73.76
39773;BME280;25451;51.960;6.250;2024-03-22T02:54:26;101752.09;;;12.53;73.34
39773;BME280;25451;51.960;6.250;2024-03-22T02:56:51;101749.31;;;12.53;73.63
39773;BME280;25451;51.960;6.250;2024-03-22T02:59:16;101750.78;;;12.56;73.60
39773;BME280;25451;51.960;6.250;2024-03-22T03:01:42;101739.69;;;12.56;73.25
39773;BME280;25451;51.960;6.250;2024-03-22T03:04:07;101731.38;;;12.56;73.66
39773;BME280;25451;51.960;6.250;2024-03-22T03:06:32;101726.72;;;12.56;73.41
39773;BME280;25451;51.960;6.250;2024-03-22T03:08:57;101725.25;;;12.54;73.63
39773;BME280;25451;51.960;6.250;2024-03-22T03:11:23;101713.69;;;12.57;73.71
39773;BME280;25451;51.960;6.250;2024-03-22T03:13:48;101715.03;;;12.54;73.46
39773;BME280;25451;51.960;6.250;2024-03-22T03:16:13;101720.31;;;12.56;73.70
39773;BME280;25451;51.960;6.250;2024-03-22T03:18:38;101717.53;;;12.56;73.51
39773;BME280;25451;51.960;6.250;2024-03-22T03:21:04;101716.69;;;12.55;73.51
39773;BME280;25451;51.960;6.250;2024-03-22T03:23:30;101718.84;;;12.53;73.66
39773;BME280;25451;51.960;6.250;2024-03-22T03:25:55;101701.03;;;12.49;73.69
39773;BME280;25451;51.960;6.250;2024-03-22T03:28:20;101702.25;;;12.53;73.49
39773;BME280;25451;51.960;6.250;2024-03-22T03:30:45;101688.63;;;12.52;73.46
39773;BME280;25451;51.960;6.250;2024-03-22T03:33:11;101684.41;;;12.49;73.53
39773;BME280;25451;51.960;6.250;2024-03-22T03:35:36;101687.53;;;12.52;73.35
39773;BME280;25451;51.960;6.250;2024-03-22T03:38:01;101676.72;;;12.51;73.52
39773;BME280;25451;51.960;6.250;2024-03-22T03:40:27;101676.72;;;12.51;73.75
39773;BME280;25451;51.960;6.250;2024-03-22T03:42:53;101677.56;;;12.52;73.84
39773;BME280;25451;51.960;6.250;2024-03-22T03:45:18;101671.41;;;12.49;73.49
39773;BME280;25451;51.960;6.250;2024-03-22T03:47:43;101670.31;;;12.50;73.76
39773;BME280;25451;51.960;6.250;2024-03-22T03:50:09;101668.66;;;12.49;73.76
39773;BME280;25451;51.960;6.250;2024-03-22T03:52:34;101658.41;;;12.50;73.89
39773;BME280;25451;51.960;6.250;2024-03-22T03:55:00;101657.81;;;12.48;73.60
39773;BME280;25451;51.960;6.250;2024-03-22T03:57:25;101638.88;;;12.45;73.61
39773;BME280;25451;51.960;6.250;2024-03-22T03:59:51;101639.50;;;12.47;73.61
39773;BME280;25451;51.960;6.250;2024-03-22T04:02:16;101651.19;;;12.49;74.03
39773;BME280;25451;51.960;6.250;2024-03-22T04:04:41;101638.44;;;12.48;74.02
39773;BME280;25451;51.960;6.250;2024-03-22T04:07:07;101633.09;;;12.46;73.78
39773;BME280;25451;51.960;6.250;2024-03-22T04:09:32;101627.81;;;12.45;74.15
39773;BME280;25451;51.960;6.250;2024-03-22T04:11:58;101637.56;;;12.47;74.10
39773;BME280;25451;51.960;6.250;2024-03-22T04:14:24;101632.03;;;12.47;74.05
39773;BME280;25451;51.960;6.250;2024-03-22T04:16:50;101631.19;;;12.47;74.04
39773;BME280;25451;51.960;6.250;2024-03-22T04:19:15;101630.59;;;12.45;74.14
39773;BME280;25451;51.960;6.250;2024-03-22T04:21:40;101625.66;;;12.47;74.25
39773;BME280;25451;51.960;6.250;2024-03-22T04:24:05;101617.34;;;12.47;74.41
39773;BME280;25451;51.960;6.250;2024-03-22T04:26:31;101612.91;;;12.46;74.19
39773;BME280;25451;51.960;6.250;2024-03-22T04:28:56;101627.34;;;12.48;74.36
39773;BME280;25451;51.960;6.250;2024-03-22T04:31:22;101632.03;;;12.47;74.14
39773;BME280;25451;51.960;6.250;2024-03-22T04:33:47;101621.81;;;12.48;74.35
39773;BME280;25451;51.960;6.250;2024-03-22T04:36:12;101632.91;;;12.48;74.52
39773;BME280;25451;51.960;6.250;2024-03-22T04:38:38;101624.59;;;12.48;74.41
39773;BME280;25451;51.960;6.250;2024-03-22T04:41:03;101616.28;;;12.48;74.41
39773;BME280;25451;51.960;6.250;2024-03-22T04:43:28;101611.56;;;12.48;74.66
39773;BME280;25451;51.960;6.250;2024-03-22T04:45:54;101621.81;;;12.48;74.32
39773;BME280;25451;51.960;6.250;2024-03-22T04:48:21;101615.44;;;12.47;74.53
39773;BME280;25451;51.960;6.250;2024-03-22T04:50:47;101619.66;;;12.50;74.68
39773;BME280;25451;51.960;6.250;2024-03-22T04:53:15;101619.66;;;12.50;74.43
39773;BME280;25451;51.960;6.250;2024-03-22T04:55:42;101617.69;;;12.50;74.49
39773;BME280;25451;51.960;6.250;2024-03-22T04:58:12;101615.78;;;12.51;74.47
39773;BME280;25451;51.960;6.250;2024-03-22T05:00:37;101611.56;;;12.48;74.56
39773;BME280;25451;51.960;6.250;2024-03-22T05:03:03;101617.94;;;12.49;74.88
39773;BME280;25451;51.960;6.250;2024-03-22T05:05:28;101615.78;;;12.51;74.76
39773;BME280;25451;51.960;6.250;2024-03-22T05:07:54;101604.34;;;12.47;74.83
39773;BME280;25451;51.960;6.250;2024-03-22T05:10:19;101601.09;;;12.50;74.93
39773;BME280;25451;51.960;6.250;2024-03-22T05:12:44;101604.72;;;12.51;74.93
39773;BME280;25451;51.960;6.250;2024-03-22T05:15:09;101598.94;;;12.52;74.84
39773;BME280;25451;51.960;6.250;2024-03-22T05:17:35;101601.94;;;12.51;75.24
39773;BME280;25451;51.960;6.250;2024-03-22T05:20:00;101600.03;;;12.52;75.09
39773;BME280;25451;51.960;6.250;2024-03-22T05:22:27;101591.47;;;12.53;75.11
39773;BME280;25451;51.960;6.250;2024-03-22T05:24:52;101597.50;;;12.50;75.13
39773;BME280;25451;51.960;6.250;2024-03-22T05:27:18;101602.53;;;12.53;74.98
39773;BME280;25451;51.960;6.250;2024-03-22T05:29:43;101595.34;;;12.52;75.15
39773;BME280;25451;51.960;6.250;2024-03-22T05:32:09;101602.28;;;12.55;75.01
39773;BME280;25451;51.960;6.250;2024-03-22T05:34:35;101599.16;;;12.51;75.04
39773;BME280;25451;51.960;6.250;2024-03-22T05:37:02;101600.38;;;12.55;75.29
39773;BME280;25451;51.960;6.250;2024-03-22T05:39:27;101600.38;;;12.55;75.02
39773;BME280;25451;51.960;6.250;2024-03-22T05:41:52;101598.72;;;12.54;75.30
39773;BME280;25451;51.960;6.250;2024-03-22T05:44:19;101605.91;;;12.55;75.45
39773;BME280;25451;51.960;6.250;2024-03-22T05:46:44;101589.31;;;12.55;75.11
39773;BME280;25451;51.960;6.250;2024-03-22T05:49:10;101581.84;;;12.56;75.07
39773;BME280;25451;51.960;6.250;2024-03-22T05:51:35;101597.59;;;12.55;75.40
39773;BME280;25451;51.960;6.250;2024-03-22T05:54:00;101598.47;;;12.56;75.56
39773;BME280;25451;51.960;6.250;2024-03-22T05:56:25;101592.06;;;12.55;75.30
39773;BME280;25451;51.960;6.250;2024-03-22T05:58:51;101593.16;;;12.54;75.35
39773;BME280;25451;51.960;6.250;2024-03-22T06:01:16;101591.22;;;12.55;75.41
39773;BME280;25451;51.960;6.250;2024-03-22T06:03:41;101602.09;;;12.56;75.19
39773;BME280;25451;51.960;6.250;2024-03-22T06:06:07;101594.84;;;12.55;75.39
39773;BME280;25451;51.960;6.250;2024-03-22T06:08:33;101606.53;;;12.57;75.60
39773;BME280;25451;51.960;6.250;2024-03-22T06:11:00;101595.09;;;12.54;75.58
39773;BME280;25451;51.960;6.250;2024-03-22T06:13:25;101599.31;;;12.56;75.54
39773;BME280;25451;51.960;6.250;2024-03-22T06:15:50;101599.53;;;12.55;75.38
39773;BME280;25451;51.960;6.250;2024-03-22T06:18:16;101598.22;;;12.57;75.37
39773;BME280;25451;51.960;6.250;2024-03-22T06:20:42;101592.69;;;12.57;75.47
39773;BME280;25451;51.960;6.250;2024-03-22T06:23:10;101590.50;;;12.59;75.21
39773;BME280;25451;51.960;6.250;2024-03-22T06:25:36;101586.88;;;12.59;75.25
39773;BME280;25451;51.960;6.250;2024-03-22T06:28:01;101596.28;;;12.58;75.59
39773;BME280;25451;51.960;6.250;2024-03-22T06:30:26;101591.59;;;12.58;75.48
39773;BME280;25451;51.960;6.250;2024-03-22T06:32:53;101583.91;;;12.60;75.30
39773;BME280;25451;51.960;6.250;2024-03-22T06:35:18;101587.75;;;12.59;75.56
39773;BME280;25451;51.960;6.250;2024-03-22T06:37:43;101589.44;;;12.60;75.46
39773;BME280;25451;51.960;6.250;2024-03-22T06:40:09;101591.38;;;12.60;75.09
39773;BME280;25451;51.960;6.250;2024-03-22T06:42:35;101581.13;;;12.60;75.47
39773;BME280;25451;51.960;6.250;2024-03-22T06:45:00;101583.31;;;12.58;75.46
39773;BME280;25451;51.960;6.250;2024-03-22T06:47:25;101576.41;;;12.61;75.28
39773;BME280;25451;51.960;6.250;2024-03-22T06:49:50;101576.66;;;12.59;75.62
39773;BME280;25451;51.960;6.250;2024-03-22T06:52:16;101565.59;;;12.59;75.33
39773;BME280;25451;51.960;6.250;2024-03-22T06:54:43;101570.28;;;12.59;74.88
39773;BME280;25451;51.960;6.250;2024-03-22T06:57:08;101561.16;;;12.58;75.23
39773;BME280;25451;51.960;6.250;2024-03-22T06:59:34;101565.59;;;12.59;75.24
39773;BME280;25451;51.960;6.250;2024-03-22T07:01:59;101575.59;;;12.60;75.02
39773;BME280;25451;51.960;6.250;2024-03-22T07:04:24;101570.06;;;12.60;75.29
39773;BME280;25451;51.960;6.250;2024-03-22T07:06:49;101571.72;;;12.61;75.01
39773;BME280;25451;51.960;6.250;2024-03-22T07:09:15;101588.34;;;12.61;74.62
39773;BME280;25451;51.960;6.250;2024-03-22T07:11:40;101567.28;;;12.60;74.86
39773;BME280;25451;51.960;6.250;2024-03-22T07:14:05;101579.78;;;12.63;74.78
39773;BME280;25451;51.960;6.250;2024-03-22T07:16:31;101582.56;;;12.63;74.68
39773;BME280;25451;51.960;6.250;2024-03-22T07:18:56;101571.72;;;12.61;74.56
39773;BME280;25451;51.960;6.250;2024-03-22T07:21:21;101584.25;;;12.64;74.91
39773;BME280;25451;51.960;6.250;2024-03-22T07:23:47;101582.81;;;12.61;74.88
39773;BME280;25451;51.960;6.250;2024-03-22T07:26:12;101587.63;;;12.66;74.69
39773;BME280;25451;51.960;6.250;2024-03-22T07:28:37;101586.78;;;12.65;74.66
39773;BME280;25451;51.960;6.250;2024-03-22T07:31:03;101583.53;;;12.68;74.72
39773;BME280;25451;51.960;6.250;2024-03-22T07:33:28;101576.91;;;12.69;74.54
39773;BME280;25451;51.960;6.250;2024-03-22T07:35:53;101583.53;;;12.68;74.28
39773;BME280;25451;51.960;6.250;2024-03-22T07:38:20;101588.84;;;12.70;74.21
39773;BME280;25451;51.960;6.250;2024-03-22T07:40:45;101585.81;;;12.71;74.58
39773;BME280;25451;51.960;6.250;2024-03-22T07:43:10;101583.91;;;12.72;74.08
39773;BME280;25451;51.960;6.250;2024-03-22T07:45:37;101578.72;;;12.75;74.34
39773;BME280;25451;51.960;6.250;2024-03-22T07:48:02;101579.31;;;12.77;74.23
39773;BME280;25451;51.960;6.250;2024-03-22T07:50:28;101579.06;;;12.79;74.17
39773;BME280;25451;51.960;6.250;2024-03-22T07:52:53;101580.28;;;12.83;73.90
39773;BME280;25451;51.960;6.250;2024-03-22T07:55:18;101572.34;;;12.86;73.78
39773;BME280;25451;51.960;6.250;2024-03-22T07:57:43;101564.84;;;12.87;73.66
39773;BME280;25451;51.960;6.250;2024-03-22T08:00:09;101568.25;;;12.89;73.74
39773;BME280;25451;51.960;6.250;2024-03-22T08:02:35;101571.63;;;12.91;74.19
39773;BME280;25451;51.960;6.250;2024-03-22T08:05:00;101572.44;;;12.91;73.71
39773;BME280;25451;51.960;6.250;2024-03-22T08:07:27;101576.66;;;12.94;73.62
39773;BME280;25451;51.960;6.250;2024-03-22T08:09:52;101574.25;;;12.97;73.62
39773;BME280;25451;51.960;6.250;2024-03-22T08:12:18;101583.16;;;12.99;73.36
39773;BME280;25451;51.960;6.250;2024-03-22T08:14:44;101585.13;;;12.99;73.35
39773;BME280;25451;51.960;6.250;2024-03-22T08:17:10;101586.53;;;13.01;73.46
39773;BME280;25451;51.960;6.250;2024-03-22T08:19:36;101581.59;;;13.03;73.34
39773;BME280;25451;51.960;6.250;2024-03-22T08:22:02;101585.00;;;13.05;73.24
39773;BME280;25451;51.960;6.250;2024-03-22T08:24:27;101581.16;;;13.06;72.96
39773;BME280;25451;51.960;6.250;2024-03-22T08:26:52;101583.91;;;13.06;73.07
39773;BME280;25451;51.960;6.250;2024-03-22T08:29:18;101580.66;;;13.09;72.93
39773;BME280;25451;51.960;6.250;2024-03-22T08:31:44;101579.59;;;13.10;73.59
39773;BME280;25451;51.960;6.250;2024-03-22T08:34:09;101574.63;;;13.12;73.01
39773;BME280;25451;51.960;6.250;2024-03-22T08:36:34;101573.53;;;13.13;72.93
39773;BME280;25451;51.960;6.250;2024-03-22T08:39:00;101561.13;;;13.16;72.95
39773;BME280;25451;51.960;6.250;2024-03-22T08:41:25;101554.25;;;13.18;73.09
39773;BME280;25451;51.960;6.250;2024-03-22T08:43:50;101553.16;;;13.19;72.89
39773;BME280;25451;51.960;6.250;2024-03-22T08:46:15;101548.47;;;13.20;73.07
39773;BME280;25451;51.960;6.250;2024-03-22T08:48:41;101550.75;;;13.23;72.98
39773;BME280;25451;51.960;6.250;2024-03-22T08:51:06;101550.50;;;13.24;72.60
39773;BME280;25451;51.960;6.250;2024-03-22T08:53:31;101541.59;;;13.22;72.65
39773;BME280;25451;51.960;6.250;2024-03-22T08:55:57;101552.78;;;13.27;72.84
39773;BME280;25451;51.960;6.250;2024-03-22T08:58:22;101551.69;;;13.28;72.50
39773;BME280;25451;51.960;6.250;2024-03-22T09:00:47;101550.84;;;13.28;72.69
39773;BME280;25451;51.960;6.250;2024-03-22T09:03:13;101548.34;;;13.26;72.71
39773;BME280;25451;51.960;6.250;2024-03-22T09:05:40;101547.47;;;13.26;72.93
39773;BME280;25451;51.960;6.250;2024-03-22T09:08:06;101550.00;;;13.27;72.81
39773;BME280;25451;51.960;6.250;2024-03-22T09:10:31;101549.19;;;13.27;72.40
39773;BME280;25451;51.960;6.250;2024-03-22T09:12:56;101540.59;;;13.28;72.79
39773;BME280;25451;51.960;6.250;2024-03-22T09:15:22;101540.59;;;13.28;72.39
39773;BME280;25451;51.960;6.250;2024-03-22T09:17:47;101547.00;;;13.29;72.57
39773;BME280;25451;51.960;6.250;2024-03-22T09:20:12;101542.78;;;13.26;72.51
39773;BME280;25451;51.960;6.250;2024-03-22T09:22:38;101540.59;;;13.28;72.51
39773;BME280;25451;51.960;6.250;2024-03-22T09:25:04;101536.13;;;13.27;72.46
39773;BME280;25451;51.960;6.250;2024-03-22T09:27:31;101546.16;;;13.28;72.52
39773;BME280;25451;51.960;6.250;2024-03-22T09:29:56;101545.06;;;13.29;72.60
39773;BME280;25451;51.960;6.250;2024-03-22T09:32:21;101546.75;;;13.30;72.54
39773;BME280;25451;51.960;6.250;2024-03-22T09:34:48;101544.84;;;13.31;72.63
39773;BME280;25451;51.960;6.250;2024-03-22T09:37:15;101536.72;;;13.29;72.54
39773;BME280;25451;51.960;6.250;2024-03-22T09:39:40;101534.47;;;13.26;72.40
39773;BME280;25451;51.960;6.250;2024-03-22T09:42:06;101526.41;;;13.25;72.40
39773;BME280;25451;51.960;6.250;2024-03-22T09:44:32;101533.16;;;13.29;72.45
39773;BME280;25451;51.960;6.250;2024-03-22T09:46:59;101528.66;;;13.28;72.43
39773;BME280;25451;51.960;6.250;2024-03-22T09:49:25;101522.28;;;13.27;72.35
39773;BME280;25451;51.960;6.250;2024-03-22T09:51:51;101533.38;;;13.27;72.47
39773;BME280;25451;51.960;6.250;2024-03-22T09:54:16;101527.59;;;13.29;72.62
39773;BME280;25451;51.960;6.250;2024-03-22T09:56:42;101528.66;;;13.28;72.39
39773;BME280;25451;51.960;6.250;2024-03-22T09:59:09;101528.66;;;13.28;72.62
39773;BME280;25451;51.960;6.250;2024-03-22T10:01:36;101532.03;;;13.30;72.76
39773;BME280;25451;51.960;6.250;2024-03-22T10:04:02;101530.59;;;13.27;72.53
39773;BME280;25451;51.960;6.250;2024-03-22T10:06:29;101523.50;;;13.32;72.45
39773;BME280;25451;51.960;6.250;2024-03-22T10:08:58;101538.44;;;13.30;72.77
39773;BME280;25451;51.960;6.250;2024-03-22T10:11:26;101534.59;;;13.32;72.85
39773;BME280;25451;51.960;6.250;2024-03-22T10:13:51;101533.50;;;13.32;72.63
39773;BME280;25451;51.960;6.250;2024-03-22T10:16:16;101523.97;;;13.28;72.84
39773;BME280;25451;51.960;6.250;2024-03-22T10:18:42;101530.72;;;13.32;72.60
39773;BME280;25451;51.960;6.250;2024-03-22T10:21:07;101528.53;;;13.35;72.54
39773;BME280;25451;51.960;6.250;2024-03-22T10:23:32;101526.88;;;13.34;72.52
39773;BME280;25451;51.960;6.250;2024-03-22T10:25:59;101522.41;;;13.32;72.58
39773;BME280;25451;51.960;6.250;2024-03-22T10:28:27;101525.75;;;13.35;72.78
39773;BME280;25451;51.960;6.250;2024-03-22T10:30:53;101530.25;;;13.36;72.54
39773;BME280;25451;51.960;6.250;2024-03-22T10:33:19;101519.63;;;13.32;72.58
39773;BME280;25451;51.960;6.250;2024-03-22T10:35:46;101513.22;;;13.32;72.55
39773;BME280;25451;51.960;6.250;2024-03-22T10:38:12;101515.78;;;13.34;72.49
39773;BME280;25451;51.960;6.250;2024-03-22T10:40:39;101519.38;;;13.34;72.58
39773;BME280;25451;51.960;6.250;2024-03-22T10:43:05;101519.38;;;13.34;72.75
39773;BME280;25451;51.960;6.250;2024-03-22T10:45:31;101517.44;;;13.35;72.60
39773;BME280;25451;51.960;6.250;2024-03-22T10:47:56;101521.06;;;13.35;72.86
39773;BME280;25451;51.960;6.250;2024-03-22T10:50:22;101520.22;;;13.35;72.80
39773;BME280;25451;51.960;6.250;2024-03-22T10:52:56;101518.28;;;13.35;72.82
39773;BME280;25451;51.960;6.250;2024-03-22T10:55:43;101511.91;;;13.35;72.61
39773;BME280;25451;51.960;6.250;2024-03-22T10:58:17;101517.94;;;13.32;72.75
39773;BME280;25451;51.960;6.250;2024-03-22T11:00:43;101512.16;;;13.33;72.94
39773;BME280;25451;51.960;6.250;2024-03-22T11:03:09;101516.00;;;13.32;73.07
39773;BME280;25451;51.960;6.250;2024-03-22T11:05:34;101514.06;;;13.32;72.87
39773;BME280;25451;51.960;6.250;2024-03-22T11:08:04;101512.41;;;13.32;73.04
39773;BME280;25451;51.960;6.250;2024-03-22T11:10:35;101501.31;;;13.32;73.09
39773;BME280;25451;51.960;6.250;2024-03-22T11:13:04;101501.06;;;13.33;73.10
39773;BME280;25451;51.960;6.250;2024-03-22T11:15:30;101509.13;;;13.35;73.00
39773;BME280;25451;51.960;6.250;2024-03-22T11:17:56;101511.66;;;13.36;73.22
39773;BME280;25451;51.960;6.250;2024-03-22T11:20:22;101516.13;;;13.37;73.35
39773;BME280;25451;51.960;6.250;2024-03-22T11:22:47;101498.88;;;13.35;73.02
39773;BME280;25451;51.960;6.250;2024-03-22T11:25:13;101505.28;;;13.36;73.15
39773;BME280;25451;51.960;6.250;2024-03-22T11:27:38;101498.03;;;13.35;73.22
39773;BME280;25451;51.960;6.250;2024-03-22T11:30:04;101502.50;;;13.36;73.28
39773;BME280;25451;51.960;6.250;2024-03-22T11:32:29;101503.31;;;13.36;73.24
39773;BME280;25451;51.960;6.250;2024-03-22T11:34:55;101480.09;;;13.25;73.43
39773;BME280;25451;51.960;6.250;2024-03-22T11:37:20;101495.25;;;13.35;73.76
39773;BME280;25451;51.960;6.250;2024-03-22T11:39:46;101490.81;;;13.34;73.47
39773;BME280;25451;51.960;6.250;2024-03-22T11:42:12;101491.41;;;13.36;73.53
39773;BME280;25451;51.960;6.250;2024-03-22T11:44:39;101494.19;;;13.36;73.54
39773;BME280;25451;51.960;6.250;2024-03-22T11:47:05;101487.53;;;13.37;73.59
39773;BME280;25451;51.960;6.250;2024-03-22T11:49:30;101485.88;;;13.36;73.77
39773;BME280;25451;51.960;6.250;2024-03-22T11:51:56;101482.25;;;13.35;73.92
39773;BME280;25451;51.960;6.250;2024-03-22T11:54:22;101474.78;;;13.36;73.77
39773;BME280;25451;51.960;6.250;2024-03-22T11:56:48;101486.47;;;13.38;73.89
39773;BME280;25451;51.960;6.250;2024-03-22T11:59:13;101479.81;;;13.39;74.03
39773;BME280;25451;51.960;6.250;2024-03-22T12:01:40;101477.91;;;13.39;74.30
39773;BME280;25451;51.960;6.250;2024-03-22T12:04:06;101475.38;;;13.38;74.32
39773;BME280;25451;51.960;6.250;2024-03-22T12:06:34;101470.06;;;13.36;74.36
39773;BME280;25451;51.960;6.250;2024-03-22T12:08:59;101472.59;;;13.38;74.39
39773;BME280;25451;51.960;6.250;2024-03-22T12:11:25;101466.22;;;13.37;74.12
39773;BME280;25451;51.960;6.250;2024-03-22T12:13:50;101459.34;;;13.40;74.60
39773;BME280;25451;51.960;6.250;2024-03-22T12:16:15;101465.69;;;13.40;74.49
39773;BME280;25451;51.960;6.250;2024-03-22T12:18:41;101460.16;;;13.40;74.72
39773;BME280;25451;51.960;6.250;2024-03-22T12:21:06;101465.69;;;13.40;74.57
39773;BME280;25451;51.960;6.250;2024-03-22T12:23:32;101462.69;;;13.42;74.64
39773;BME280;25451;51.960;6.250;2024-03-22T12:25:57;101456.31;;;13.41;74.83
39773;BME280;25451;51.960;6.250;2024-03-22T12:28:22;101448.25;;;13.40;74.69
39773;BME280;25451;51.960;6.250;2024-03-22T12:30:49;101438.81;;;13.41;74.97
39773;BME280;25451;51.960;6.250;2024-03-22T12:33:14;101435.78;;;13.42;74.82
39773;BME280;25451;51.960;6.250;2024-03-22T12:35:40;101436.88;;;13.41;74.77
39773;BME280;25451;51.960;6.250;2024-03-22T12:38:06;101433.59;;;13.44;74.84
39773;BME280;25451;51.960;6.250;2024-03-22T12:40:32;101437.47;;;13.43;75.18
39773;BME280;25451;51.960;6.250;2024-03-22T12:42:58;101428.31;;;13.43;75.09